LFRO 211130Z AUTO 07004KT 040V110 9999 OVC032 07/01 Q1040

ElémentsDécodage
LFRO Station météo située sur l'aérodrome de LANNION
211130Z émis le 21 du mois à 11h30 UTC
AUTO Bulletin édité par un automate
07004KT vent du 070°, 04 noeuds
040V110 vent de direction variable entre 040° et 110°
9999 visibilité horizontale supérieure à 10 Km
OVC032 couverture nuageuse totale (8/8) à 3200 pieds
07/01 température 07°C, point de rosée 01°C
 soit une humidité relative de 66%
Q1040 la pression au niveau de la mer (QNH) est de 1040 hPa